sensor_id;sensor_type;location;lat;lon;timestamp;temperature;humidity
38084;DHT22;23894;51.466;7.444;2023-04-03T12:10:18;26.60;99.90
38084;DHT22;23894;51.466;7.444;2023-04-03T12:12:36;27.40;99.90
38084;DHT22;23894;51.466;7.444;2023-04-03T12:14:39;28.20;99.90
38084;DHT22;23894;51.466;7.444;2023-04-03T12:16:49;28.90;99.90
38084;DHT22;23894;51.466;7.444;2023-04-03T12:22:04;30.00;99.90
38084;DHT22;23894;51.466;7.444;2023-04-03T12:26:25;31.30;99.90
38084;DHT22;23894;51.466;7.444;2023-04-03T12:28:27;31.70;99.90
38084;DHT22;23894;51.466;7.444;2023-04-03T12:30:30;32.00;99.90
38084;DHT22;23894;51.466;7.444;2023-04-03T12:40:07;33.30;99.90
38084;DHT22;23894;51.466;7.444;2023-04-03T12:44:58;33.90;99.90
38084;DHT22;23894;51.466;7.444;2023-04-03T12:47:02;34.10;99.90
38084;DHT22;23894;51.466;7.444;2023-04-03T12:51:42;34.10;99.90
38084;DHT22;23894;51.466;7.444;2023-04-03T12:53:45;34.60;99.90
38084;DHT22;23894;51.466;7.444;2023-04-03T12:55:54;34.80;99.90
38084;DHT22;23894;51.466;7.444;2023-04-03T12:58:12;34.60;99.90
38084;DHT22;23894;51.466;7.444;2023-04-03T13:00:34;34.80;99.90
38084;DHT22;23894;51.466;7.444;2023-04-03T13:02:38;35.40;99.90
38084;DHT22;23894;51.466;7.444;2023-04-03T13:04:38;35.60;99.90
38084;DHT22;23894;51.466;7.444;2023-04-03T13:06:42;35.70;99.90
38084;DHT22;23894;51.466;7.444;2023-04-03T13:08:55;36.00;99.90
38084;DHT22;23894;51.466;7.444;2023-04-03T13:11:02;36.00;99.90
38084;DHT22;23894;51.466;7.444;2023-04-03T13:13:09;35.70;99.90
38084;DHT22;23894;51.466;7.444;2023-04-03T13:15:30;35.50;99.90
38084;DHT22;23894;51.466;7.444;2023-04-03T13:17:32;35.60;99.90
38084;DHT22;23894;51.466;7.444;2023-04-03T13:19:38;35.60;99.90
38084;DHT22;23894;51.466;7.444;2023-04-03T13:21:42;35.20;99.90
38084;DHT22;23894;51.466;7.444;2023-04-03T13:23:47;35.10;99.90
38084;DHT22;23894;51.466;7.444;2023-04-03T13:25:49;35.30;99.90
38084;DHT22;23894;51.466;7.444;2023-04-03T13:27:51;35.10;99.90
38084;DHT22;23894;51.466;7.444;2023-04-03T13:29:54;35.20;99.90
38084;DHT22;23894;51.466;7.444;2023-04-03T13:32:00;35.20;99.90
38084;DHT22;23894;51.466;7.444;2023-04-03T13:34:19;35.20;99.90
38084;DHT22;23894;51.466;7.444;2023-04-03T13:36:25;35.30;99.90
38084;DHT22;23894;51.466;7.444;2023-04-03T13:38:30;35.60;99.90
38084;DHT22;23894;51.466;7.444;2023-04-03T13:40:53;35.20;99.90
38084;DHT22;23894;51.466;7.444;2023-04-03T13:43:20;35.20;99.90
38084;DHT22;23894;51.466;7.444;2023-04-03T13:45:30;35.30;99.90
38084;DHT22;23894;51.466;7.444;2023-04-03T13:47:40;35.40;99.90
38084;DHT22;23894;51.466;7.444;2023-04-03T13:52:27;35.30;99.90
38084;DHT22;23894;51.466;7.444;2023-04-03T13:54:34;35.00;99.90
38084;DHT22;23894;51.466;7.444;2023-04-03T13:56:39;35.20;99.90
38084;DHT22;23894;51.466;7.444;2023-04-03T13:58:56;35.10;99.90
38084;DHT22;23894;51.466;7.444;2023-04-03T14:01:33;34.90;99.90
38084;DHT22;23894;51.466;7.444;2023-04-03T14:03:43;35.10;99.90
38084;DHT22;23894;51.466;7.444;2023-04-03T14:05:46;35.10;99.90
38084;DHT22;23894;51.466;7.444;2023-04-03T14:07:49;35.00;99.90
38084;DHT22;23894;51.466;7.444;2023-04-03T14:09:52;34.60;99.90
38084;DHT22;23894;51.466;7.444;2023-04-03T14:12:06;34.80;99.90
38084;DHT22;23894;51.466;7.444;2023-04-03T14:14:20;34.80;99.90
38084;DHT22;23894;51.466;7.444;2023-04-03T14:16:26;34.60;99.90
38084;DHT22;23894;51.466;7.444;2023-04-03T14:18:30;34.20;99.90
38084;DHT22;23894;51.466;7.444;2023-04-03T14:20:32;33.80;99.90
38084;DHT22;23894;51.466;7.444;2023-04-03T14:22:33;33.60;99.90
38084;DHT22;23894;51.466;7.444;2023-04-03T14:24:37;33.50;99.90
38084;DHT22;23894;51.466;7.444;2023-04-03T14:26:41;33.40;99.90
38084;DHT22;23894;51.466;7.444;2023-04-03T14:28:44;33.10;99.90
38084;DHT22;23894;51.466;7.444;2023-04-03T14:30:48;33.10;99.90
38084;DHT22;23894;51.466;7.444;2023-04-03T14:32:51;33.10;99.90
38084;DHT22;23894;51.466;7.444;2023-04-03T14:34:51;32.80;99.90
38084;DHT22;23894;51.466;7.444;2023-04-03T14:36:53;32.80;99.90
38084;DHT22;23894;51.466;7.444;2023-04-03T14:38:55;32.80;99.90
38084;DHT22;23894;51.466;7.444;2023-04-03T14:40:58;32.80;99.90
38084;DHT22;23894;51.466;7.444;2023-04-03T14:43:01;32.60;99.90
38084;DHT22;23894;51.466;7.444;2023-04-03T14:45:06;32.40;99.90
38084;DHT22;23894;51.466;7.444;2023-04-03T14:47:17;32.20;99.90
38084;DHT22;23894;51.466;7.444;2023-04-03T14:49:24;32.10;99.90
38084;DHT22;23894;51.466;7.444;2023-04-03T14:51:26;31.70;99.90
38084;DHT22;23894;51.466;7.444;2023-04-03T14:53:29;31.30;99.90
38084;DHT22;23894;51.466;7.444;2023-04-03T14:55:32;31.00;99.90
38084;DHT22;23894;51.466;7.444;2023-04-03T14:57:32;30.90;99.90
38084;DHT22;23894;51.466;7.444;2023-04-03T14:59:36;30.80;99.90
38084;DHT22;23894;51.466;7.444;2023-04-03T15:01:37;30.70;99.90
38084;DHT22;23894;51.466;7.444;2023-04-03T15:03:37;30.50;99.90
38084;DHT22;23894;51.466;7.444;2023-04-03T15:05:39;29.90;99.90
38084;DHT22;23894;51.466;7.444;2023-04-03T15:07:53;29.50;99.90
38084;DHT22;23894;51.466;7.444;2023-04-03T15:09:54;29.40;99.90
38084;DHT22;23894;51.466;7.444;2023-04-03T15:12:00;29.20;99.90
38084;DHT22;23894;51.466;7.444;2023-04-03T15:14:02;28.90;99.90
38084;DHT22;23894;51.466;7.444;2023-04-03T15:16:03;28.70;99.90
38084;DHT22;23894;51.466;7.444;2023-04-03T15:18:06;28.50;99.90
38084;DHT22;23894;51.466;7.444;2023-04-03T15:20:22;28.20;99.90
38084;DHT22;23894;51.466;7.444;2023-04-03T15:22:24;27.60;99.90
38084;DHT22;23894;51.466;7.444;2023-04-03T15:24:24;27.00;99.90
38084;DHT22;23894;51.466;7.444;2023-04-03T15:26:26;26.70;99.90
38084;DHT22;23894;51.466;7.444;2023-04-03T15:28:38;26.10;99.90
38084;DHT22;23894;51.466;7.444;2023-04-03T15:30:40;25.60;99.90
38084;DHT22;23894;51.466;7.444;2023-04-03T15:32:43;25.20;99.90
38084;DHT22;23894;51.466;7.444;2023-04-03T15:34:46;24.80;99.90
